Česky Dansk Deutsch English Español Suomi Français Magyar Italiano Nederlands norsk Polski Português svenska Türkçe

 

Het Weer

Socotra (Yemen)

12:00, 25 maart 2015 (GMT-2)

 
WE
 
Home            
Socotra Salalah Riyan Thumrait Sayun Ataq Sharurah Aden Burao Marib Berbera Masirah Al-Hazm Mokha Taiz Sana'A Fahud Hargeisa Mokha Najran Djibouti \ Ambouli Djibouti Sa'Ada / Sadah

Om een weerknop op uw website of weblog te plaatsen, copieer onderstaande code en plak die in uw pagina. In het eerste vakje staat HTML-code, in het tweede vakje UBB-code.


Add to Google

Details

Wind speed:4 bf, 12 kn, 6.2 m/s, 13.8 miles/h, 22.2 km/h
Wind direction:NE, 050°
Visibility:Greater than 10000 m, 10 km, 32800 ft, 6.2 miles
Clouds:Ein wenig bewölkt at 1800 ft, 549 m
Temperature:30°C, 86°F
Gefühlte Temperatur:33°C, 92°F
Dew-point:22°C, 72°F
Atmospheric pressure:1012 hPa, 759.1 mmHg, 29.88 inHg, 0.999 atm
Relative humidity:62.3 %
METAR:OYSQ 251100Z 05012KT 9999 FEW018 30/22 Q1012

Snelkoppelingen

Actuele weersinformatie van de hele wereld. Voeg locaties toe met het plus (+) symbool. Deze snelkoppelingen kunnen worden toegevoegd aan Google.

Lid van de Technetium groep

website free tracking
StatCounter NetStat W3C Validator

29-05-2017 11:30:06
astro.technetium.be money.technetium.be phote.technetium.be tafeltennistafel.technetium.be www.ligfiets.net